createdAt,value
2022-10-23T00:01:17.736Z,5.20
2022-10-23T00:03:45.141Z,4.43
2022-10-23T00:06:13.341Z,4.47
2022-10-23T00:08:40.813Z,3.75
2022-10-23T00:11:13.092Z,3.97
2022-10-23T00:13:40.635Z,3.95
2022-10-23T00:16:07.652Z,4.72
2022-10-23T00:18:36.406Z,4.20
2022-10-23T00:21:03.817Z,4.68
2022-10-23T00:23:30.216Z,5.20
2022-10-23T00:25:56.566Z,6.32
2022-10-23T00:28:23.035Z,7.75
2022-10-23T00:30:49.416Z,6.97
2022-10-23T00:33:16.014Z,8.40
2022-10-23T00:35:43.262Z,10.05
2022-10-23T00:38:10.587Z,9.82
2022-10-23T00:40:38.104Z,10.93
2022-10-23T00:43:05.427Z,11.25
2022-10-23T00:45:33.425Z,12.60
2022-10-23T00:48:01.785Z,11.95
2022-10-23T00:50:31.796Z,12.95
2022-10-23T00:53:02.329Z,12.85
2022-10-23T00:55:30.348Z,12.00
2022-10-23T00:57:56.862Z,11.95
2022-10-23T01:00:29.797Z,11.68
2022-10-23T01:02:57.649Z,12.48
2022-10-23T01:05:44.673Z,12.45
2022-10-23T01:08:20.374Z,12.23
2022-10-23T01:11:06.756Z,12.80
2022-10-23T01:13:54.853Z,11.77
2022-10-23T01:16:27.121Z,11.43
2022-10-23T01:19:03.794Z,10.38
2022-10-23T01:21:54.419Z,11.07
2022-10-23T01:24:33.152Z,10.88
2022-10-23T01:27:03.264Z,11.50
2022-10-23T01:29:31.775Z,10.68
2022-10-23T01:32:04.160Z,10.98
2022-10-23T01:34:42.067Z,10.98
2022-10-23T01:37:13.641Z,10.63
2022-10-23T01:39:47.898Z,10.18
2022-10-23T01:42:19.339Z,10.65
2022-10-23T01:45:09.145Z,10.90
2022-10-23T01:47:36.408Z,10.07
2022-10-23T01:50:06.098Z,11.40
2022-10-23T01:52:32.511Z,10.55
2022-10-23T01:55:01.429Z,10.77
2022-10-23T01:57:30.674Z,11.13
2022-10-23T02:00:07.532Z,11.30
2022-10-23T02:02:37.858Z,10.25
2022-10-23T02:05:09.397Z,10.55
2022-10-23T02:07:36.901Z,10.70
2022-10-23T02:10:08.569Z,11.70
2022-10-23T02:12:55.027Z,12.45
2022-10-23T02:15:29.800Z,12.65
2022-10-23T02:18:07.659Z,13.05
2022-10-23T02:21:01.992Z,11.95
2022-10-23T02:23:36.528Z,12.35
2022-10-23T02:26:11.981Z,11.75
2022-10-23T02:28:44.061Z,11.57
2022-10-23T02:31:14.034Z,11.90
2022-10-23T02:33:40.752Z,11.57
2022-10-23T02:36:07.542Z,11.60
2022-10-23T02:38:33.966Z,12.40
2022-10-23T02:41:11.758Z,12.77
2022-10-23T02:43:49.021Z,13.93
2022-10-23T02:46:34.200Z,12.43
2022-10-23T02:49:13.370Z,13.18
2022-10-23T02:51:45.875Z,12.23
2022-10-23T02:54:32.171Z,12.70
2022-10-23T02:57:05.817Z,13.02
2022-10-23T02:59:42.763Z,13.57
2022-10-23T03:02:21.053Z,12.93
2022-10-23T03:04:48.554Z,15.48
2022-10-23T03:07:15.439Z,16.40
2022-10-23T03:09:41.816Z,15.50
2022-10-23T03:12:08.226Z,15.15
2022-10-23T03:14:34.600Z,15.95
2022-10-23T03:17:01.002Z,16.60
2022-10-23T03:19:27.356Z,15.77
2022-10-23T03:21:53.726Z,15.45
2022-10-23T03:24:20.095Z,19.70
2022-10-23T03:26:46.520Z,18.48
2022-10-23T03:29:12.944Z,16.05
2022-10-23T03:31:39.315Z,16.42
2022-10-23T03:34:09.970Z,17.77
2022-10-23T03:36:36.587Z,17.13
2022-10-23T03:39:04.211Z,20.58
2022-10-23T03:41:31.595Z,16.33
2022-10-23T03:43:58.126Z,15.48
2022-10-23T03:46:24.689Z,16.77
2022-10-23T03:48:51.086Z,19.27
2022-10-23T03:51:17.469Z,16.98
2022-10-23T03:53:43.853Z,17.90
2022-10-23T03:56:10.210Z,20.20
2022-10-23T03:58:36.594Z,16.85
2022-10-23T04:01:03.069Z,17.55
2022-10-23T04:03:29.486Z,18.63
2022-10-23T04:05:55.859Z,22.30
2022-10-23T04:08:22.248Z,26.77
2022-10-23T04:10:48.618Z,20.73
2022-10-23T04:13:15.001Z,22.92
2022-10-23T04:15:41.376Z,22.13
2022-10-23T04:18:07.761Z,22.23
2022-10-23T04:20:34.152Z,20.90
2022-10-23T04:23:00.505Z,22.98
2022-10-23T04:25:26.852Z,20.50
2022-10-23T04:27:53.214Z,21.30
2022-10-23T04:30:19.571Z,24.85
2022-10-23T04:32:45.937Z,22.67
2022-10-23T04:35:12.340Z,21.17
2022-10-23T04:37:38.729Z,20.73
2022-10-23T04:40:05.585Z,24.10
2022-10-23T04:42:31.943Z,21.05
2022-10-23T04:44:58.328Z,25.08
2022-10-23T04:47:25.198Z,20.55
2022-10-23T04:49:51.594Z,21.75
2022-10-23T04:52:17.978Z,22.40
2022-10-23T04:54:44.382Z,23.45
2022-10-23T04:57:10.780Z,20.08
2022-10-23T04:59:37.133Z,20.88
2022-10-23T05:02:03.510Z,21.13
2022-10-23T05:04:29.891Z,18.08
2022-10-23T05:06:56.281Z,22.77
2022-10-23T05:09:22.650Z,17.02
2022-10-23T05:11:49.039Z,16.73
2022-10-23T05:14:18.108Z,21.45
2022-10-23T05:16:50.226Z,16.85
2022-10-23T05:19:24.229Z,16.95
2022-10-23T05:21:55.749Z,16.52
2022-10-23T05:24:23.398Z,15.50
2022-10-23T05:26:52.995Z,15.40
2022-10-23T05:29:20.395Z,16.58
2022-10-23T05:31:50.471Z,15.40
2022-10-23T05:34:20.645Z,18.38
2022-10-23T05:36:47.286Z,15.57
2022-10-23T05:39:13.795Z,15.95
2022-10-23T05:41:40.206Z,17.67
2022-10-23T05:44:06.574Z,19.05
2022-10-23T05:46:32.955Z,14.57
2022-10-23T05:51:30.663Z,15.20
2022-10-23T05:53:57.045Z,13.50
2022-10-23T05:56:23.412Z,15.90
2022-10-23T05:58:50.097Z,13.75
2022-10-23T06:01:18.481Z,13.13
2022-10-23T06:03:45.094Z,13.77
2022-10-23T06:06:11.528Z,16.63
2022-10-23T06:08:37.881Z,13.05
2022-10-23T06:11:09.402Z,15.32
2022-10-23T06:13:36.377Z,12.75
2022-10-23T06:16:29.302Z,14.60
2022-10-23T06:18:57.371Z,13.55
2022-10-23T06:21:24.005Z,14.18
2022-10-23T06:23:50.382Z,14.50
2022-10-23T06:26:18.157Z,13.80
2022-10-23T06:28:45.346Z,11.85
2022-10-23T06:31:14.252Z,14.45
2022-10-23T06:33:41.638Z,16.73
2022-10-23T06:36:10.339Z,13.40
2022-10-23T06:38:40.232Z,13.95
2022-10-23T06:41:18.433Z,19.27
2022-10-23T06:43:47.115Z,13.98
2022-10-23T06:46:13.639Z,14.38
2022-10-23T06:48:43.141Z,13.35
2022-10-23T06:51:11.446Z,19.07
2022-10-23T06:53:38.437Z,13.82
2022-10-23T06:56:06.607Z,15.00
2022-10-23T06:58:34.342Z,14.50
2022-10-23T07:01:02.275Z,16.67
2022-10-23T07:03:28.889Z,18.15
2022-10-23T07:05:55.394Z,14.25
2022-10-23T07:08:21.913Z,15.63
2022-10-23T07:10:48.826Z,15.10
2022-10-23T07:13:15.265Z,16.80
2022-10-23T07:15:41.753Z,17.55
2022-10-23T07:18:14.353Z,16.30
2022-10-23T07:20:41.753Z,17.23
2022-10-23T07:23:11.120Z,17.13
2022-10-23T07:25:38.242Z,15.25
2022-10-23T07:28:04.789Z,14.50
2022-10-23T07:30:31.620Z,16.50
2022-10-23T07:32:58.128Z,16.42
2022-10-23T07:35:24.721Z,17.63
2022-10-23T07:37:51.134Z,17.42
2022-10-23T07:40:18.779Z,18.67
2022-10-23T07:42:45.200Z,19.65
2022-10-23T07:45:12.490Z,20.75
2022-10-23T07:47:40.251Z,16.73
2022-10-23T07:50:07.459Z,17.98
2022-10-23T07:52:36.232Z,19.25
2022-10-23T07:55:02.806Z,17.75
2022-10-23T07:57:29.239Z,17.75
2022-10-23T07:59:55.667Z,21.27
2022-10-23T08:02:22.219Z,16.77
2022-10-23T08:04:49.933Z,16.00
2022-10-23T08:07:16.345Z,16.83
2022-10-23T08:09:42.722Z,15.40
2022-10-23T08:12:09.970Z,17.33
2022-10-23T08:14:36.408Z,17.08
2022-10-23T08:17:03.395Z,17.27
2022-10-23T08:19:29.854Z,18.75
2022-10-23T08:21:57.300Z,20.83
2022-10-23T08:24:25.888Z,21.45
2022-10-23T08:26:52.416Z,20.90
2022-10-23T08:29:18.910Z,20.27
2022-10-23T08:31:45.374Z,19.27
2022-10-23T08:34:12.328Z,19.65
2022-10-23T08:36:39.408Z,18.58
2022-10-23T08:39:06.806Z,22.40
2022-10-23T08:41:34.885Z,18.45
2022-10-23T08:44:09.737Z,20.30
2022-10-23T08:46:42.802Z,19.90
2022-10-23T08:49:22.047Z,18.75
2022-10-23T08:51:51.798Z,23.00
2022-10-23T08:54:49.597Z,20.08
2022-10-23T08:57:17.809Z,23.77
2022-10-23T08:59:48.705Z,22.73
2022-10-23T09:02:25.486Z,20.02
2022-10-23T09:04:54.280Z,22.08
2022-10-23T09:07:34.116Z,21.95
2022-10-23T09:10:14.876Z,20.40
2022-10-23T09:12:41.987Z,21.25
2022-10-23T09:15:22.254Z,24.77
2022-10-23T09:17:53.705Z,20.42
2022-10-23T09:20:22.179Z,20.58
2022-10-23T09:23:00.138Z,20.48
2022-10-23T09:25:35.446Z,18.58
2022-10-23T09:28:05.784Z,18.75
2022-10-23T09:33:22.981Z,19.38
2022-10-23T09:35:53.773Z,19.95
2022-10-23T09:38:31.114Z,21.23
2022-10-23T09:41:13.715Z,20.27
2022-10-23T09:43:40.306Z,21.48
2022-10-23T09:46:08.018Z,21.80
2022-10-23T09:48:34.997Z,22.20
2022-10-23T09:51:04.593Z,24.63
2022-10-23T09:53:33.084Z,22.35
2022-10-23T09:56:07.917Z,21.92
2022-10-23T09:58:39.282Z,21.40
2022-10-23T10:01:06.176Z,20.88
2022-10-23T10:03:32.733Z,19.95
2022-10-23T10:06:02.489Z,20.35
2022-10-23T10:09:00.089Z,20.50
2022-10-23T10:11:37.631Z,21.23
2022-10-23T10:14:22.309Z,20.95
2022-10-23T10:16:54.825Z,19.58
2022-10-23T10:19:49.878Z,18.70
2022-10-23T10:22:25.365Z,18.90
2022-10-23T10:25:15.003Z,18.50
2022-10-23T10:28:03.023Z,17.87
2022-10-23T10:30:44.683Z,17.58
2022-10-23T10:33:25.472Z,16.50
2022-10-23T10:35:54.749Z,15.50
2022-10-23T10:38:21.290Z,15.80
2022-10-23T10:41:05.892Z,16.15
2022-10-23T10:43:51.671Z,14.50
2022-10-23T10:46:53.704Z,14.73
2022-10-23T10:49:28.000Z,14.30
2022-10-23T10:52:37.226Z,13.73
2022-10-23T10:55:41.906Z,14.10
2022-10-23T10:58:14.382Z,14.68
2022-10-23T11:00:40.895Z,14.05
2022-10-23T11:03:16.428Z,15.43
2022-10-23T11:05:46.615Z,14.43
2022-10-23T11:08:15.604Z,15.07
2022-10-23T11:10:51.001Z,15.40
2022-10-23T11:13:33.498Z,15.30
2022-10-23T11:16:04.583Z,14.20
2022-10-23T11:18:32.478Z,15.95
2022-10-23T11:21:17.579Z,13.73
2022-10-23T11:24:05.803Z,13.90
2022-10-23T11:27:04.576Z,14.70
2022-10-23T11:30:01.479Z,14.85
2022-10-23T11:32:42.280Z,13.88
2022-10-23T11:35:36.762Z,14.63
2022-10-23T11:38:18.113Z,14.55
2022-10-23T11:40:53.976Z,14.75
2022-10-23T11:43:34.211Z,15.13
2022-10-23T11:46:25.232Z,15.20
2022-10-23T11:48:53.949Z,14.75
2022-10-23T11:51:42.136Z,13.20
2022-10-23T11:54:11.806Z,15.00
2022-10-23T11:56:50.657Z,14.18
2022-10-23T11:59:28.044Z,14.82
2022-10-23T12:01:58.258Z,13.55
2022-10-23T12:04:41.136Z,13.73
2022-10-23T12:07:24.954Z,13.15
2022-10-23T12:09:56.886Z,12.98
2022-10-23T12:12:42.627Z,13.98
2022-10-23T12:15:14.748Z,13.30
2022-10-23T12:17:46.333Z,13.32
2022-10-23T12:20:15.624Z,12.90
2022-10-23T12:22:50.972Z,13.68
2022-10-23T12:25:22.676Z,13.52
2022-10-23T12:27:56.044Z,12.45
2022-10-23T12:30:42.327Z,12.60
2022-10-23T12:33:27.908Z,13.85
2022-10-23T12:36:17.013Z,12.93
2022-10-23T12:38:47.836Z,12.02
2022-10-23T12:41:21.030Z,11.50
2022-10-23T12:43:55.724Z,10.68
2022-10-23T12:46:31.499Z,12.27
2022-10-23T12:49:01.096Z,12.20
2022-10-23T12:51:33.848Z,12.65
2022-10-23T12:54:27.512Z,12.82
2022-10-23T12:56:54.400Z,12.18
2022-10-23T12:59:26.441Z,11.77
2022-10-23T13:01:54.963Z,13.48
2022-10-23T13:04:35.402Z,13.50
2022-10-23T13:09:35.139Z,11.32
2022-10-23T13:12:04.929Z,12.15
2022-10-23T13:14:46.625Z,11.32
2022-10-23T13:17:13.947Z,11.30
2022-10-23T13:19:40.610Z,11.20
2022-10-23T13:22:21.453Z,11.13
2022-10-23T13:24:49.759Z,10.45
2022-10-23T13:27:46.150Z,10.48
2022-10-23T13:30:57.304Z,10.02
2022-10-23T13:33:33.199Z,8.85
2022-10-23T13:36:19.693Z,8.55
2022-10-23T13:39:15.318Z,9.43
2022-10-23T13:41:47.189Z,8.80
2022-10-23T13:44:20.402Z,8.10
2022-10-23T13:46:53.871Z,8.10
2022-10-23T13:49:22.224Z,7.63
2022-10-23T13:51:58.342Z,7.00
2022-10-23T13:56:56.186Z,6.80
2022-10-23T13:59:32.853Z,6.97
2022-10-23T14:02:03.838Z,6.93
2022-10-23T14:04:34.371Z,6.40
2022-10-23T14:07:01.136Z,6.15
2022-10-23T14:09:28.119Z,6.30
2022-10-23T14:11:55.104Z,5.57
2022-10-23T14:14:22.156Z,6.78
2022-10-23T14:16:49.224Z,7.35
2022-10-23T14:19:18.715Z,6.47
2022-10-23T14:21:48.301Z,6.53
2022-10-23T14:24:14.979Z,5.68
2022-10-23T14:26:43.438Z,5.63
2022-10-23T14:29:17.235Z,5.75
2022-10-23T14:31:47.870Z,6.00
2022-10-23T14:34:14.236Z,6.07
2022-10-23T14:36:50.266Z,6.75
2022-10-23T14:39:17.362Z,6.80
2022-10-23T14:41:44.240Z,8.77
2022-10-23T14:44:10.883Z,8.30
2022-10-23T14:46:40.204Z,12.27
2022-10-23T14:49:06.944Z,25.10
2022-10-23T14:51:35.851Z,15.00
2022-10-23T14:54:06.289Z,16.45
2022-10-23T14:56:36.790Z,10.98
2022-10-23T14:59:04.303Z,10.73
2022-10-23T15:01:33.309Z,13.63
2022-10-23T15:04:01.315Z,14.10
2022-10-23T15:06:28.494Z,10.70
2022-10-23T15:08:57.924Z,9.60
2022-10-23T15:11:25.807Z,21.80
2022-10-23T15:13:55.218Z,17.25
2022-10-23T15:16:23.971Z,12.33
2022-10-23T15:18:52.489Z,12.82
2022-10-23T15:21:19.721Z,11.52
2022-10-23T15:23:50.983Z,11.23
2022-10-23T15:26:23.539Z,11.27
2022-10-23T15:28:58.503Z,11.55
2022-10-23T15:31:43.445Z,12.90
2022-10-23T15:34:12.906Z,11.85
2022-10-23T15:36:43.539Z,11.70
2022-10-23T15:39:11.656Z,11.10
2022-10-23T15:41:40.459Z,10.05
2022-10-23T15:44:08.305Z,9.93
2022-10-23T15:46:35.699Z,8.77
2022-10-23T15:49:02.621Z,8.77
2022-10-23T15:51:29.192Z,9.55
2022-10-23T15:53:57.080Z,9.73
2022-10-23T15:56:24.577Z,12.52
2022-10-23T15:58:50.995Z,14.27
2022-10-23T16:01:17.799Z,16.27
2022-10-23T16:03:44.810Z,14.20
2022-10-23T16:06:13.737Z,12.77
2022-10-23T16:08:40.954Z,9.68
2022-10-23T16:11:18.271Z,8.02
2022-10-23T16:13:45.059Z,6.82
2022-10-23T16:16:12.231Z,6.55
2022-10-23T16:18:38.948Z,6.43
2022-10-23T16:21:06.448Z,6.88
2022-10-23T16:23:33.549Z,6.80
2022-10-23T16:26:06.374Z,8.27
2022-10-23T16:28:32.970Z,9.93
2022-10-23T16:30:59.578Z,20.92
2022-10-23T16:33:26.118Z,29.92
2022-10-23T16:35:52.559Z,16.15
2022-10-23T16:38:19.332Z,12.55
2022-10-23T16:40:51.162Z,9.65
2022-10-23T16:43:17.534Z,7.10
2022-10-23T16:45:43.893Z,7.10
2022-10-23T16:48:10.295Z,6.95
2022-10-23T16:53:10.991Z,7.57
2022-10-23T16:55:40.653Z,8.27
2022-10-23T16:58:07.148Z,7.63
2022-10-23T17:00:35.270Z,7.70
2022-10-23T17:03:03.380Z,6.53
2022-10-23T17:05:34.092Z,7.45
2022-10-23T17:08:00.776Z,6.78
2022-10-23T17:10:27.472Z,7.10
2022-10-23T17:12:53.830Z,7.63
2022-10-23T17:15:20.877Z,7.18
2022-10-23T17:17:47.249Z,7.07
2022-10-23T17:20:13.621Z,6.40
2022-10-23T17:22:40.054Z,6.45
2022-10-23T17:25:07.311Z,6.88
2022-10-23T17:27:33.704Z,6.55
2022-10-23T17:30:00.091Z,6.78
2022-10-23T17:32:26.479Z,6.75
2022-10-23T17:34:52.873Z,5.90
2022-10-23T17:37:19.246Z,7.00
2022-10-23T17:39:45.609Z,5.43
2022-10-23T17:42:12.063Z,5.75
2022-10-23T17:44:38.418Z,6.38
2022-10-23T17:47:04.875Z,5.47
2022-10-23T17:49:31.319Z,5.90
2022-10-23T17:51:57.974Z,6.30
2022-10-23T17:54:26.630Z,6.28
2022-10-23T17:56:53.010Z,6.18
2022-10-23T17:59:19.772Z,5.95
2022-10-23T18:01:48.225Z,5.63
2022-10-23T18:04:17.592Z,6.18
2022-10-23T18:06:47.255Z,6.10
2022-10-23T18:09:14.035Z,5.68
2022-10-23T18:11:45.423Z,8.45
2022-10-23T18:14:15.026Z,9.00
2022-10-23T18:16:41.755Z,14.93
2022-10-23T18:19:08.740Z,20.70
2022-10-23T18:21:35.912Z,9.57
2022-10-23T18:24:02.562Z,6.35
2022-10-23T18:26:30.823Z,5.95
2022-10-23T18:28:59.022Z,6.50
2022-10-23T18:31:27.683Z,5.85
2022-10-23T18:33:59.682Z,5.68
2022-10-23T18:36:29.259Z,7.10
2022-10-23T18:41:28.065Z,7.97
2022-10-23T18:43:55.031Z,6.63
2022-10-23T18:46:22.211Z,6.75
2022-10-23T18:48:50.891Z,6.78
2022-10-23T18:51:26.717Z,6.43
2022-10-23T18:53:53.595Z,6.35
2022-10-23T18:56:23.437Z,5.95
2022-10-23T18:58:58.349Z,6.20
2022-10-23T19:01:27.178Z,6.10
2022-10-23T19:06:25.903Z,6.22
2022-10-23T19:08:52.591Z,6.00
2022-10-23T19:11:22.376Z,5.75
2022-10-23T19:13:48.741Z,6.30
2022-10-23T19:16:19.478Z,5.85
2022-10-23T19:18:50.260Z,5.78
2022-10-23T19:21:20.288Z,5.57
2022-10-23T19:23:48.165Z,5.45
2022-10-23T19:26:15.107Z,5.65
2022-10-23T19:28:45.773Z,5.93
2022-10-23T19:31:12.586Z,5.60
2022-10-23T19:33:39.256Z,5.35
2022-10-23T19:36:08.851Z,6.00
2022-10-23T19:38:40.255Z,5.90
2022-10-23T19:41:07.001Z,5.35
2022-10-23T19:43:33.409Z,5.40
2022-10-23T19:46:04.041Z,5.45
2022-10-23T19:48:32.941Z,17.20
2022-10-23T19:50:59.355Z,6.63
2022-10-23T19:53:25.717Z,6.18
2022-10-23T19:56:01.680Z,5.38
2022-10-23T19:58:28.049Z,5.65
2022-10-23T20:00:54.391Z,5.45
2022-10-23T20:03:20.739Z,5.32
2022-10-23T20:05:47.194Z,5.43
2022-10-23T20:08:13.685Z,5.22
2022-10-23T20:10:42.253Z,5.28
2022-10-23T20:13:19.370Z,5.20
2022-10-23T20:15:46.676Z,5.20
2022-10-23T20:18:13.029Z,4.78
2022-10-23T20:20:41.223Z,5.47
2022-10-23T20:23:07.689Z,5.00
2022-10-23T20:25:34.109Z,5.50
2022-10-23T20:28:00.525Z,5.68
2022-10-23T20:30:26.988Z,5.28
2022-10-23T20:32:53.324Z,5.32
2022-10-23T20:35:19.684Z,5.07
2022-10-23T20:37:46.470Z,5.15
2022-10-23T20:40:13.172Z,5.10
2022-10-23T20:42:39.580Z,5.32
2022-10-23T20:45:06.340Z,4.70
2022-10-23T20:47:32.809Z,5.30
2022-10-23T20:49:59.166Z,5.20
2022-10-23T20:52:27.633Z,5.10
2022-10-23T20:54:54.157Z,5.40
2022-10-23T20:57:21.442Z,5.22
2022-10-23T20:59:47.984Z,5.03
2022-10-23T21:02:14.450Z,5.15
2022-10-23T21:04:40.928Z,5.00
2022-10-23T21:07:10.484Z,5.35
2022-10-23T21:09:38.572Z,5.38
2022-10-23T21:12:06.583Z,5.30
2022-10-23T21:14:33.446Z,5.60
2022-10-23T21:16:59.915Z,5.30
2022-10-23T21:19:26.353Z,5.68
2022-10-23T21:21:52.747Z,5.55
2022-10-23T21:24:19.300Z,5.60
2022-10-23T21:26:45.874Z,5.20
2022-10-23T21:29:20.817Z,5.45
2022-10-23T21:31:55.814Z,5.22
2022-10-23T21:34:24.084Z,5.50
2022-10-23T21:39:37.253Z,4.90
2022-10-23T21:42:03.788Z,5.50
2022-10-23T21:44:30.146Z,5.00
2022-10-23T21:46:56.547Z,5.60
2022-10-23T21:49:22.931Z,5.10
2022-10-23T21:51:49.331Z,5.32
2022-10-23T21:54:15.830Z,5.10
2022-10-23T21:56:50.844Z,5.07
2022-10-23T21:59:19.772Z,4.72
2022-10-23T22:01:47.661Z,4.80
2022-10-23T22:04:17.217Z,4.95
2022-10-23T22:06:44.833Z,5.30
2022-10-23T22:09:13.492Z,4.85
2022-10-23T22:11:40.538Z,5.38
2022-10-23T22:14:07.302Z,4.45
2022-10-23T22:16:33.780Z,4.82
2022-10-23T22:19:00.254Z,5.15
2022-10-23T22:21:29.356Z,5.10
2022-10-23T22:23:58.684Z,4.70
2022-10-23T22:26:28.895Z,5.20
2022-10-23T22:28:57.620Z,4.63
2022-10-23T22:31:26.375Z,4.75
2022-10-23T22:33:53.644Z,5.13
2022-10-23T22:36:20.405Z,4.75
2022-10-23T22:38:47.153Z,4.95
2022-10-23T22:41:14.426Z,4.68
2022-10-23T22:43:40.941Z,4.50
2022-10-23T22:46:10.471Z,4.53
2022-10-23T22:48:37.351Z,4.60
2022-10-23T22:51:07.255Z,4.40
2022-10-23T22:53:35.290Z,3.97
2022-10-23T22:56:06.158Z,4.22
2022-10-23T22:58:32.588Z,4.38
2022-10-23T23:01:06.236Z,4.03
2022-10-23T23:03:32.779Z,4.38
2022-10-23T23:05:59.238Z,4.00
2022-10-23T23:08:26.282Z,4.50
2022-10-23T23:10:54.033Z,4.40
2022-10-23T23:13:20.517Z,4.43
2022-10-23T23:15:46.846Z,4.43
2022-10-23T23:18:13.282Z,4.05
2022-10-23T23:20:39.668Z,4.10
2022-10-23T23:23:06.240Z,4.40
2022-10-23T23:25:32.688Z,3.83
2022-10-23T23:27:59.162Z,4.18
2022-10-23T23:30:25.646Z,4.20
2022-10-23T23:32:52.878Z,4.15
2022-10-23T23:35:20.624Z,4.30
2022-10-23T23:37:47.050Z,3.67
2022-10-23T23:40:13.823Z,4.25
2022-10-23T23:42:40.271Z,3.90
2022-10-23T23:45:14.176Z,3.70
2022-10-23T23:47:41.702Z,4.35
2022-10-23T23:50:09.774Z,4.20
2022-10-23T23:52:36.166Z,3.90
2022-10-23T23:55:02.576Z,4.30
2022-10-23T23:57:28.951Z,4.28
2022-10-23T23:59:55.401Z,4.38
